Pagrindinis puslapis
METAR-TAF:

METAR-TAF

Oro uostai :

Pafosas, Kipras

platuma: 34-43N, ilguma: 032-29E, Aukštis: 11 m

Dabartinis oras

Ataskaita buvo paskelbta 27 minutes, ne 21:30 UTC
Vėjas 8 kt iš Šiaurės/Šiaurės Rytų
Temperatūra 12°C
Drėgmė 76%
Slėgis 1021 hPa
Matomumas 10 km arba daugiau
Mažai debesys ne aukštis 2000 ft

METAR: LCPH 152130Z 03008KT 9999 FEW020 12/08 Q1021

Laikas: 23:57 (21:57 UTC)

Prognozė

Ataskaita buvo paskelbta 4 valandos ir 27 minutes, ne 17:30 UTC
Prognozė galioja nuo 15 metu 18 UTC su 16 metu 18 UTC
Vėjas 10 kt iš Rytų
Matomumas 10 km arba daugiau
Mažai debesys ne aukštis 3000 ft
Tapsmas
nuo 15 metu 18 UTC su 15 metu 20 UTC
Vėjas 9 kt iš Šiaurės Rytų

TAF: LCPH 151730Z 1518/1618 10010KT 9999 FEW030 BECMG 1518/1520 04009KT

Orai ataskaitas ir orų prognozės (METAR, TAF).

turimą stotys yra geltonos ir raudonos taškus žemėlapyje.

Perkelti pele per norėdami pamatyti stoties vardą.

Tada spustelėkite, norėdami matyti oro stebėjimo ir prognozės.

Norėdami pakeisti žemėlapį: spustelėkite ant žalios mygtukų su juodo kryžiaus žemyn,; žalią mygtuką su brūkšneliu, jei norite nutolinti; arba žalių rodyklių gretimoms žemėlapius.


METAR-TAF: